Sherman, Connecticut
Current Conditions -  °F | °C
As of 3:53 PM on Friday 19 Dec 2014 (Local Time) from KDXR Reporting Station
Overcast Overcast  
Wind Chill: 27°   Ceiling: 3500
Heat Index: 35°   Visibility: 10mi
Dew Point: 19°   Wind: 10mph
Humidity: 52%   Direction: 330°NNW
Pressure: 30.04"   Gusts: NA
Location:  41.57°N, 73.49°W
Report Text: KDXR 192053Z 33009KT 10SM OVC035 02/M07 A3004 RMK AO2 SLP176 T00171072 53014
Loading
Personal Weather Stations






























Interactive Weather Map New forecast layout! Learn more

10-Day Weather Forecast

Advertisements
Track Severe Weather on mobile